KTMA/TMA METAR and TAF weather

Enter ICAO airport designator
Station Type Date Time Source
KTMA METAR 2019/10/14 05:35 UTC NOAA

KTMA 140535Z AUTO 03004KT 10SM BKN018 OVC036 23/20 A3006 RMK AO2 T02320199


Station Type Date Time Source
KTMA Decoded METAR 2019/10/14 05:35 UTC NOAA

Station name not available
Oct 14, 2019 - 01:35 AM EDT / 2019.10.14 0535 UTC
Wind: from the NNE (030 degrees) at 5 MPH (4 KT):0
Visibility: 10 mile(s):0
Sky conditions: overcast
Temperature: 73.8 F (23.2 C)
Dew Point: 67.8 F (19.9 C)
Relative Humidity: 81%
Pressure (altimeter): 30.06 in. Hg (1017 hPa)
ob: KTMA 140535Z AUTO 03004KT 10SM BKN018 OVC036 23/20 A3006 RMK AO2 T02320199
cycle: 5

Station Type Date Time Source
KTMA TAF UTC NOAA

Error!

Example: see airport list